.
WxDataArchive / Data Records for 2011-12-28
2011-12-27 December 2011 2011-12-29

Data Records for Wednesday, 28 December 2011

Time	Temp	Chill	HIndex	Humid	Dewpt	 Wind 	HiWind	WindDir	Rain 	Barom 
-----	----	-----	------	-----	-----	------	------	-------	-----	----- 
00:00	31.0	26.9	31.0	74	23.7	4	11	270	0.00	29.836 
00:05	31.0	31.0	31.0	74	23.7	3	10	270	0.00	29.836 
00:10	31.0	26.9	31.0	74	23.7	4	9	338	0.00	29.836 
00:15	31.0	26.9	31.0	73	23.4	4	11	338	0.00	29.840 
00:20	31.0	26.9	31.0	73	23.4	4	12	315	0.00	29.840 
00:25	31.0	31.0	31.0	74	23.7	3	10	315	0.00	29.840 
00:30	31.0	31.0	31.0	74	23.7	3	10	315	0.00	29.850 
00:35	30.9	24.9	30.9	72	23.0	6	18	315	0.00	29.850 
00:40	30.7	26.6	30.7	72	22.8	4	8	315	0.00	29.850 
00:45	30.6	25.4	30.6	72	22.7	5	10	292	0.00	29.850 
00:50	30.6	26.5	30.6	73	23.0	4	11	270	0.00	29.850 
00:55	30.6	25.4	30.6	73	23.0	5	12	270	0.00	29.850 
01:00	30.4	26.2	30.4	73	22.8	4	10	315	0.00	29.854 
01:05	30.4	30.4	30.4	73	22.8	3	9	270	0.00	29.854 
01:10	30.3	26.1	30.3	73	22.7	4	9	315	0.00	29.854 
01:15	30.3	26.1	30.3	72	22.4	4	12	292	0.00	29.867 
01:20	30.3	30.3	30.3	73	22.7	3	6	315	0.00	29.867 
01:25	30.3	30.3	30.3	73	22.7	3	6	270	0.00	29.867 
01:30	30.3	30.3	30.3	73	22.7	3	7	292	0.00	29.867 
01:35	30.3	30.3	30.3	73	22.7	3	7	270	0.00	29.867 
01:40	30.1	30.1	30.1	72	22.2	2	4	315	0.00	29.867 
01:45	30.1	30.1	30.1	73	22.5	2	6	338	0.00	29.867 
01:50	30.1	30.1	30.1	73	22.5	3	8	270	0.00	29.867 
01:55	30.1	30.1	30.1	72	22.2	2	6	292	0.00	29.867 
02:00	30.0	30.0	30.0	70	21.4	3	12	315	0.00	29.878 
02:05	29.8	24.5	29.8	68	20.5	5	11	270	0.00	29.878 
02:10	29.8	25.5	29.8	69	20.9	4	10	315	0.00	29.878 
02:15	29.8	25.5	29.8	69	20.9	4	10	292	0.00	29.883 
02:20	29.8	29.8	29.8	69	20.9	2	9	270	0.00	29.883 
02:25	29.8	29.8	29.8	70	21.2	3	7	292	0.00	29.883 
02:30	29.8	25.5	29.8	69	20.9	4	11	292	0.00	29.898 
02:35	30.0	30.0	30.0	70	21.4	3	7	338	0.00	29.898 
02:40	30.0	30.0	30.0	70	21.4	3	7	315	0.00	29.898 
02:45	30.0	30.0	30.0	71	21.8	2	7	315	0.00	29.910 
02:50	30.0	30.0	30.0	72	22.1	1	3	338	0.00	29.910 
02:55	29.8	29.8	29.8	71	21.6	3	7	292	0.00	29.910 
03:00	29.5	25.2	29.5	69	20.6	4	8	270	0.00	29.919 
03:05	29.5	29.5	29.5	69	20.6	3	6	315	0.00	29.919 
03:10	29.4	25.1	29.4	69	20.5	4	9	270	0.00	29.919 
03:15	29.4	29.4	29.4	69	20.5	3	7	270	0.00	29.935 
03:20	29.3	29.3	29.3	69	20.4	3	7	315	0.00	29.935 
03:25	29.3	25.0	29.3	68	20.1	4	9	270	0.00	29.935 
03:30	29.3	29.3	29.3	68	20.1	3	9	315	0.00	29.937 
03:35	29.1	29.1	29.1	68	19.9	3	6	248	0.00	29.937 
03:40	29.1	29.1	29.1	68	19.9	3	7	270	0.00	29.937 
03:45	29.0	29.0	29.0	67	19.4	3	8	292	0.00	29.942 
03:50	29.0	29.0	29.0	67	19.4	3	9	270	0.00	29.942 
03:55	28.8	28.8	28.8	66	18.9	3	9	315	0.00	29.942 
04:00	28.8	28.8	28.8	67	19.2	3	7	315	0.00	29.945 
04:05	28.8	28.8	28.8	67	19.2	3	7	315	0.00	29.945 
04:10	28.7	28.7	28.7	66	18.8	3	6	270	0.00	29.945 
04:15	28.5	28.5	28.5	67	19.0	2	6	315	0.00	29.949 
04:20	28.5	28.5	28.5	67	19.0	2	6	270	0.00	29.949 
04:25	28.4	28.4	28.4	67	18.9	3	10	315	0.00	29.949 
04:30	28.4	28.4	28.4	67	18.9	3	7	292	0.00	29.948 
04:35	28.4	28.4	28.4	67	18.9	3	7	0	0.00	29.948 
04:40	28.4	28.4	28.4	68	19.2	2	4	292	0.00	29.948 
04:45	28.4	28.4	28.4	68	19.2	2	4	270	0.00	29.952 
04:50	28.2	28.2	28.2	68	19.0	3	10	338	0.00	29.952 
04:55	28.2	28.2	28.2	68	19.0	2	9	315	0.00	29.952 
05:00	28.2	28.2	28.2	67	18.7	3	6	270	0.00	29.954 
05:05	28.2	28.2	28.2	68	19.0	2	6	270	0.00	29.954 
05:10	28.1	28.1	28.1	68	18.9	2	5	338	0.00	29.954 
05:15	28.1	28.1	28.1	68	18.9	2	6	292	0.00	29.962 
05:20	28.1	28.1	28.1	68	18.9	2	5	0	0.00	29.962 
05:25	28.1	28.1	28.1	69	19.3	1	6	315	0.00	29.962 
05:30	27.9	27.9	27.9	69	19.1	1	4	338	0.00	29.959 
05:35	27.9	27.9	27.9	69	19.1	1	4	292	0.00	29.959 
05:40	27.9	27.9	27.9	69	19.1	1	9	270	0.00	29.959 
05:45	27.9	27.9	27.9	69	19.1	1	4	338	0.00	29.964 
05:50	27.9	27.9	27.9	69	19.1	2	5	315	0.00	29.964 
05:55	27.8	27.8	27.8	69	19.0	1	6	338	0.00	29.964 
06:00	27.8	27.8	27.8	70	19.3	1	4	0	0.00	29.971 
06:05	27.8	27.8	27.8	69	19.0	1	4	270	0.00	29.971 
06:10	27.8	27.8	27.8	70	19.3	1	3	0	0.00	29.971 
06:15	27.8	27.8	27.8	70	19.3	1	3	0	0.00	29.975 
06:20	27.8	27.8	27.8	70	19.3	1	3	292	0.00	29.975 
06:25	27.8	27.8	27.8	69	19.0	2	7	338	0.00	29.975 
06:30	27.6	27.6	27.6	69	18.8	2	4	270	0.00	29.974 
06:35	27.6	27.6	27.6	69	18.8	1	3	338	0.00	29.974 
06:40	27.6	27.6	27.6	69	18.8	1	3	315	0.00	29.974 
06:45	27.6	27.6	27.6	69	18.8	1	3	315	0.00	29.980 
06:50	27.6	27.6	27.6	69	18.8	2	5	270	0.00	29.980 
06:55	27.5	27.5	27.5	69	18.7	1	4	270	0.00	29.980 
07:00	27.5	27.5	27.5	69	18.7	1	5	270	0.00	29.982 
07:05	27.5	27.5	27.5	69	18.7	1	4	248	0.00	29.982 
07:10	27.5	27.5	27.5	69	18.7	1	4	292	0.00	29.982 
07:15	27.5	27.5	27.5	69	18.7	1	4	292	0.00	29.989 
07:20	27.5	27.5	27.5	69	18.7	0	2	292	0.00	29.989 
07:25	27.5	27.5	27.5	69	18.7	0	1	292	0.00	29.989 
07:30	27.3	27.3	27.3	70	18.8	0	4	338	0.00	29.994 
07:35	27.3	27.3	27.3	69	18.5	0	2	338	0.00	29.994 
07:40	27.3	27.3	27.3	69	18.5	1	3	338	0.00	29.994 
07:45	27.2	27.2	27.2	69	18.4	0	2	338	0.00	29.996 
07:50	27.2	27.2	27.2	70	18.7	0	1	338	0.00	29.996 
07:55	27.2	27.2	27.2	70	18.7	0	1	338	0.00	29.996 
08:00	27.2	27.2	27.2	70	18.7	0	3	338	0.00	30.007 
08:05	27.0	27.0	27.0	70	18.5	1	3	248	0.00	30.007 
08:10	27.0	27.0	27.0	69	18.2	1	3	248	0.00	30.007 
08:15	27.0	27.0	27.0	69	18.2	1	2	248	0.00	30.016 
08:20	27.0	27.0	27.0	69	18.2	1	4	248	0.00	30.016 
08:25	27.0	27.0	27.0	69	18.2	0	3	270	0.00	30.016 
08:30	27.0	27.0	27.0	70	18.5	1	4	270	0.00	30.028 
08:35	26.9	26.9	26.9	70	18.4	1	3	270	0.00	30.028 
08:40	26.9	26.9	26.9	69	18.1	3	6	270	0.00	30.028 
08:45	26.9	26.9	26.9	69	18.1	1	5	315	0.00	30.039 
08:50	26.9	26.9	26.9	69	18.1	1	6	315	0.00	30.039 
08:55	26.9	26.9	26.9	69	18.1	2	7	315	0.00	30.039 
09:00	26.9	26.9	26.9	68	17.8	1	4	270	0.00	30.043 
09:05	26.9	26.9	26.9	68	17.8	1	4	338	0.00	30.043 
09:10	27.0	27.0	27.0	68	17.9	1	3	338	0.00	30.043 
09:15	27.0	27.0	27.0	68	17.9	1	3	292	0.00	30.048 
09:20	27.2	27.2	27.2	68	18.1	1	4	292	0.00	30.048 
09:25	27.2	27.2	27.2	68	18.1	1	3	292	0.00	30.048 
09:30	27.2	27.2	27.2	67	17.7	2	5	292	0.00	30.053 
09:35	27.3	27.3	27.3	67	17.8	1	3	292	0.00	30.053 
09:40	27.3	27.3	27.3	66	17.5	1	4	292	0.00	30.053 
09:45	27.3	27.3	27.3	65	17.1	2	6	270	0.00	30.054 
09:50	27.3	27.3	27.3	65	17.1	2	4	248	0.00	30.054 
09:55	27.5	27.5	27.5	65	17.3	2	6	248	0.00	30.054 
10:00	27.6	27.6	27.6	65	17.4	1	3	338	0.00	30.053 
10:05	27.6	27.6	27.6	65	17.4	1	4	338	0.00	30.053 
10:10	27.5	27.5	27.5	65	17.3	2	5	270	0.00	30.053 
10:15	27.6	27.6	27.6	65	17.4	1	4	315	0.00	30.054 
10:20	27.8	27.8	27.8	65	17.6	1	3	315	0.00	30.054 
10:25	27.9	27.9	27.9	65	17.7	1	3	270	0.00	30.054 
10:30	28.2	28.2	28.2	65	18.0	1	3	270	0.00	30.059 
10:35	28.2	28.2	28.2	65	18.0	1	3	270	0.00	30.059 
10:40	28.4	28.4	28.4	64	17.8	2	4	270	0.00	30.059 
10:45	28.5	28.5	28.5	64	17.9	1	3	270	0.00	30.068 
10:50	28.7	28.7	28.7	64	18.1	0	2	270	0.00	30.068 
10:55	29.0	29.0	29.0	64	18.4	2	4	270	0.00	30.068 
11:00	28.8	28.8	28.8	63	17.8	1	3	315	0.00	30.071 
11:05	28.7	28.7	28.7	63	17.7	1	4	338	0.00	30.071 
11:10	28.5	28.5	28.5	63	17.5	1	3	338	0.00	30.071 
11:15	28.5	28.5	28.5	65	18.3	0	2	338	0.00	30.070 
11:20	28.7	28.7	28.7	64	18.1	1	3	0	0.00	30.070 
11:25	28.8	28.8	28.8	64	18.2	0	2	315	0.00	30.070 
11:30	29.1	29.1	29.1	64	18.5	0	3	315	0.00	30.061 
11:35	29.3	29.3	29.3	64	18.7	1	4	315	0.00	30.061 
11:40	29.4	29.4	29.4	65	19.1	1	3	248	0.00	30.061 
11:45	29.4	29.4	29.4	64	18.8	1	3	315	0.00	30.060 
11:50	29.4	29.4	29.4	64	18.8	0	2	315	0.00	30.060 
11:55	29.5	29.5	29.5	65	19.2	1	3	315	0.00	30.060 
12:00	29.5	29.5	29.5	64	18.8	1	3	315	0.00	30.055 
12:05	29.5	29.5	29.5	64	18.8	0	2	315	0.00	30.055 
12:10	29.5	29.5	29.5	64	18.8	1	2	315	0.00	30.055 
12:15	29.7	29.7	29.7	64	19.0	1	4	315	0.00	30.050 
12:20	29.7	29.7	29.7	64	19.0	1	3	270	0.00	30.050 
12:25	29.7	29.7	29.7	64	19.0	1	3	270	0.00	30.050 
12:30	29.7	29.7	29.7	64	19.0	1	4	270	0.00	30.043 
12:35	29.7	29.7	29.7	64	19.0	1	3	338	0.00	30.043 
12:40	29.7	29.7	29.7	64	19.0	1	3	338	0.00	30.043 
12:45	29.8	29.8	29.8	63	18.8	1	4	270	0.00	30.039 
12:50	29.8	29.8	29.8	63	18.8	2	4	292	0.00	30.039 
12:55	29.8	29.8	29.8	64	19.1	1	3	292	0.00	30.039 
13:00	30.0	30.0	30.0	62	18.6	1	3	315	0.00	30.040 
13:05	30.0	30.0	30.0	64	19.3	1	3	315	0.00	30.040 
13:10	30.3	30.3	30.3	65	20.0	1	2	292	0.00	30.040 
13:15	30.3	30.3	30.3	64	19.6	1	3	292	0.00	30.035 
13:20	30.3	30.3	30.3	63	19.2	2	4	248	0.00	30.035 
13:25	30.1	30.1	30.1	63	19.0	1	4	248	0.00	30.035 
13:30	30.1	30.1	30.1	64	19.4	1	4	248	0.00	30.027 
13:35	30.4	30.4	30.4	64	19.7	0	2	248	0.00	30.027 
13:40	30.7	30.7	30.7	65	20.3	1	5	248	0.00	30.027 
13:45	30.7	30.7	30.7	63	19.6	0	2	248	0.00	30.025 
13:50	30.7	30.7	30.7	63	19.6	0	2	248	0.00	30.025 
13:55	30.6	30.6	30.6	63	19.5	1	3	248	0.00	30.025 
14:00	30.7	30.7	30.7	64	20.0	1	3	315	0.00	30.030 
14:05	31.0	31.0	31.0	63	19.9	1	3	225	0.00	30.030 
14:10	31.2	31.2	31.2	62	19.7	1	3	248	0.00	30.030 
14:15	31.0	31.0	31.0	61	19.1	1	3	248	0.00	30.034 
14:20	31.2	31.2	31.2	62	19.7	1	4	270	0.00	30.034 
14:25	31.5	31.5	31.5	62	20.0	1	3	270	0.00	30.034 
14:30	31.2	31.2	31.2	60	19.0	1	3	292	0.00	30.040 
14:35	31.0	31.0	31.0	61	19.1	2	4	270	0.00	30.040 
14:40	31.3	31.3	31.3	62	19.8	1	4	248	0.00	30.040 
14:45	31.6	31.6	31.6	61	19.7	1	4	292	0.00	30.036 
14:50	31.8	31.8	31.8	60	19.5	1	4	292	0.00	30.036 
14:55	31.6	31.6	31.6	59	18.9	1	4	270	0.00	30.036 
15:00	31.6	31.6	31.6	60	19.3	1	4	248	0.00	30.036 
15:05	31.5	31.5	31.5	61	19.6	1	3	248	0.00	30.036 
15:10	31.3	31.3	31.3	61	19.4	1	3	248	0.00	30.036 
15:15	31.2	31.2	31.2	61	19.3	1	2	248	0.00	30.043 
15:20	31.3	31.3	31.3	62	19.8	0	2	248	0.00	30.043 
15:25	31.5	31.5	31.5	62	20.0	1	3	338	0.00	30.043 
15:30	31.6	31.6	31.6	62	20.1	0	3	338	0.00	30.044 
15:35	31.9	31.9	31.9	62	20.4	1	4	248	0.00	30.044 
15:40	32.1	32.1	32.1	61	20.2	1	3	248	0.00	30.044 
15:45	31.9	31.9	31.9	61	20.0	1	3	248	0.00	30.043 
15:50	31.8	31.8	31.8	61	19.9	1	3	248	0.00	30.043 
15:55	31.6	31.6	31.6	61	19.7	1	3	248	0.00	30.043 
16:00	31.6	31.6	31.6	61	19.7	1	3	248	0.00	30.043 
16:05	31.5	31.5	31.5	61	19.6	1	2	248	0.00	30.043 
16:10	31.5	31.5	31.5	62	20.0	1	3	248	0.00	30.043 
16:15	31.3	31.3	31.3	62	19.8	1	3	248	0.00	30.045 
16:20	31.2	31.2	31.2	62	19.7	1	3	248	0.00	30.045 
16:25	31.0	31.0	31.0	62	19.5	0	2	248	0.00	30.045 
16:30	30.7	30.7	30.7	62	19.2	1	3	225	0.00	30.046 
16:35	30.4	30.4	30.4	63	19.3	1	3	225	0.00	30.046 
16:40	30.1	30.1	30.1	64	19.4	1	3	270	0.00	30.046 
16:45	30.0	30.0	30.0	64	19.3	1	3	270	0.00	30.046 
16:50	29.8	29.8	29.8	64	19.1	1	3	270	0.00	30.046 
16:55	29.7	29.7	29.7	65	19.4	0	2	270	0.00	30.046 
17:00	29.5	29.5	29.5	65	19.2	0	2	270	0.00	30.053 
17:05	29.4	29.4	29.4	66	19.5	0	2	270	0.00	30.053 
17:10	29.3	29.3	29.3	65	19.0	1	3	270	0.00	30.053 
17:15	29.3	29.3	29.3	66	19.4	0	2	270	0.00	30.057 
17:20	29.1	29.1	29.1	66	19.2	0	2	270	0.00	30.057 
17:25	29.0	29.0	29.0	67	19.4	0	1	270	0.00	30.057 
17:30	28.7	28.7	28.7	67	19.2	0	2	270	0.00	30.050 
17:35	28.7	28.7	28.7	68	19.5	0	3	270	0.00	30.050 
17:40	28.5	28.5	28.5	68	19.3	0	1	270	0.00	30.050 
17:45	28.5	28.5	28.5	68	19.3	0	1	270	0.00	30.048 
17:50	28.4	28.4	28.4	68	19.2	0	2	270	0.00	30.048 
17:55	28.4	28.4	28.4	68	19.2	0	1	270	0.00	30.048 
18:00	28.4	28.4	28.4	68	19.2	0	1	270	0.00	30.045 
18:05	28.2	28.2	28.2	69	19.4	0	1	270	0.00	30.045 
18:10	28.1	28.1	28.1	69	19.3	0	0	---	0.00	30.045 
18:15	28.1	28.1	28.1	70	19.6	0	0	---	0.00	30.040 
18:20	27.9	27.9	27.9	70	19.4	0	0	---	0.00	30.040 
18:25	27.9	27.9	27.9	70	19.4	0	0	---	0.00	30.040 
18:30	27.9	27.9	27.9	70	19.4	0	2	270	0.00	30.045 
18:35	27.9	27.9	27.9	71	19.7	0	0	---	0.00	30.045 
18:40	27.9	27.9	27.9	70	19.4	0	0	---	0.00	30.045 
18:45	27.9	27.9	27.9	70	19.4	0	1	270	0.00	30.045 
18:50	27.9	27.9	27.9	71	19.7	0	1	270	0.00	30.045 
18:55	27.9	27.9	27.9	71	19.7	0	1	270	0.00	30.045 
19:00	27.9	27.9	27.9	70	19.4	0	0	---	0.00	30.047 
19:05	27.9	27.9	27.9	70	19.4	0	1	270	0.00	30.047 
19:10	28.1	28.1	28.1	70	19.6	0	1	270	0.00	30.047 
19:15	28.1	28.1	28.1	70	19.6	0	1	270	0.00	30.048 
19:20	28.1	28.1	28.1	70	19.6	0	1	270	0.00	30.048 
19:25	28.1	28.1	28.1	70	19.6	0	0	---	0.00	30.048 
19:30	28.1	28.1	28.1	70	19.6	0	1	270	0.00	30.048 
19:35	28.1	28.1	28.1	70	19.6	0	1	270	0.00	30.048 
19:40	28.1	28.1	28.1	70	19.6	0	0	---	0.00	30.048 
19:45	28.1	28.1	28.1	71	19.9	0	1	270	0.00	30.047 
19:50	28.1	28.1	28.1	71	19.9	0	0	---	0.00	30.047 
19:55	28.1	28.1	28.1	71	19.9	0	2	270	0.00	30.047 
20:00	28.1	28.1	28.1	71	19.9	0	2	270	0.00	30.036 
20:05	28.1	28.1	28.1	71	19.9	0	1	270	0.00	30.036 
20:10	28.1	28.1	28.1	72	20.3	0	0	---	0.00	30.036 
20:15	28.1	28.1	28.1	72	20.3	0	0	---	0.00	30.034 
20:20	27.9	27.9	27.9	73	20.4	0	0	---	0.00	30.034 
20:25	27.9	27.9	27.9	73	20.4	0	0	---	0.00	30.034 
20:30	27.9	27.9	27.9	73	20.4	0	0	---	0.00	30.031 
20:35	27.9	27.9	27.9	74	20.7	0	0	---	0.00	30.031 
20:40	27.8	27.8	27.8	74	20.6	0	0	---	0.00	30.031 
20:45	27.8	27.8	27.8	75	20.9	0	0	---	0.00	30.031 
20:50	27.9	27.9	27.9	75	21.0	0	0	---	0.00	30.031 
20:55	27.9	27.9	27.9	75	21.0	0	0	---	0.00	30.031 
21:00	27.9	27.9	27.9	76	21.3	0	0	---	0.00	30.024 
21:05	27.9	27.9	27.9	76	21.3	0	0	---	0.00	30.024 
21:10	27.9	27.9	27.9	76	21.3	0	1	270	0.00	30.024 
21:15	27.9	27.9	27.9	77	21.6	0	1	270	0.00	30.020 
21:20	27.9	27.9	27.9	77	21.6	0	0	---	0.00	30.020 
21:25	27.9	27.9	27.9	77	21.6	0	1	270	0.00	30.020 
21:30	27.9	27.9	27.9	77	21.6	0	0	---	0.00	30.018 
21:35	27.9	27.9	27.9	77	21.6	0	1	270	0.00	30.018 
21:40	27.9	27.9	27.9	77	21.6	0	0	---	0.00	30.018 
21:45	27.9	27.9	27.9	77	21.6	0	1	270	0.00	30.014 
21:50	27.9	27.9	27.9	78	21.9	0	0	---	0.00	30.014 
21:55	27.8	27.8	27.8	78	21.8	0	0	---	0.00	30.014 
22:00	27.8	27.8	27.8	78	21.8	0	0	---	0.00	30.009 
22:05	27.8	27.8	27.8	79	22.2	0	0	---	0.00	30.009 
22:10	27.9	27.9	27.9	79	22.2	0	0	---	0.00	30.009 
22:15	27.9	27.9	27.9	79	22.2	0	0	---	0.00	30.009 
22:20	27.9	27.9	27.9	79	22.2	0	0	---	0.00	30.009 
22:25	27.9	27.9	27.9	80	22.5	0	0	---	0.00	30.009 
22:30	27.9	27.9	27.9	80	22.5	0	0	---	0.00	30.010 
22:35	28.1	28.1	28.1	80	22.7	0	1	270	0.00	30.010 
22:40	28.1	28.1	28.1	80	22.7	0	1	270	0.00	30.010 
22:45	28.1	28.1	28.1	80	22.7	0	1	270	0.00	29.999 
22:50	28.2	28.2	28.2	80	22.8	0	1	270	0.00	29.999 
22:55	28.2	28.2	28.2	80	22.8	0	1	270	0.00	29.999 
23:00	28.4	28.4	28.4	80	23.0	0	1	270	0.00	29.992 
23:05	28.4	28.4	28.4	80	23.0	0	1	270	0.00	29.992 
23:10	28.4	28.4	28.4	81	23.3	0	1	270	0.00	29.992 
23:15	28.4	28.4	28.4	81	23.3	0	1	270	0.00	29.983 
23:20	28.4	28.4	28.4	81	23.3	0	1	270	0.00	29.983 
23:25	28.4	28.4	28.4	81	23.3	0	1	270	0.00	29.983 
23:30	28.4	28.4	28.4	81	23.3	0	2	270	0.00	29.982 
23:35	28.4	28.4	28.4	81	23.3	0	1	270	0.00	29.982 
23:40	28.4	28.4	28.4	82	23.6	0	0	---	0.00	29.982 
23:45	28.4	28.4	28.4	82	23.6	0	0	---	0.00	29.979 
23:50	28.4	28.4	28.4	82	23.6	0	1	270	0.00	29.979 
23:55	28.4	28.4	28.4	82	23.6	0	0	---	0.00	29.979 

CoCoRaHS
IN-AL-39
A2 Web Hosting
Creative Commons License
GoDaddy
search engine by freefind advanced

loaded 2018-11-17 23:36:16 • last modified 2010-11-18 10:43:29
Privacy PolicyDisclaimer
• wx.awcolley.com is powered by PmWiki v.2002016 •
• all content (unless otherwise noted) © 2018 A W Colley